New Hamburg, New York
Current Conditions -  °F | °C
As of 6:53 AM on Tuesday 27 Jan 2015 (Local Time) from KPOU Reporting Station
Haze Haze  
Wind Chill:   Ceiling: 5500
Heat Index: 18°   Visibility: 6mi
Dew Point: 10°   Wind: 13mph
Humidity: 71%   Direction: 360°N
Pressure: 29.73"   Gusts: 22mph
Location:  41.596°N, 73.8849°W
Report Text: KPOU 271153Z 36011G19KT 6SM HZ OVC055 M08/M12 A2973 RMK AO2 SNE12 SLP067 P0000 60001 70001 T10781122 11072 21083 55011
Loading
Personal Weather Stations






























Interactive Weather Map New forecast layout! Learn more

10-Day Weather Forecast

Advertisements
Track Severe Weather on mobile